Flight Track Log - Related Links

Times and Time Zones

All times are in EDT time to prevent confusion due to time zone crossing. See the QXE382 flight status page for this flight to view local times or setup timezone preferences in your user account.


Time Position Orientation Groundspeed Altitude Reporting Facility
EDT Latitude Longitude Course Direction KTS MPH feet Rate Location/Type
Sat 10:49:08 AM 47.4483 -122.3097 North 124 143 1,400  Level Seattle Center
Sat 10:50:09 AM 47.4992 -122.3081 351° North 201 231 3,500 2,115 Climbing Seattle Center
Sat 10:51:10 AM 47.5653 -122.3239 320° Northwest 261 300 5,700 2,231 Climbing Seattle Center
Sat 10:52:10 AM 47.6236 -122.3967 319° Northwest 271 312 8,000 1,122 Climbing Seattle Center
Sat 10:53:13 AM 47.6803 -122.4708 320° Northwest 274 315 8,000  Level Seattle Center
Sat 10:54:04 AM 47.7333 -122.5369 321° Northwest 273 314 8,000  Level Seattle Center
Sat 10:55:05 AM 47.7911 -122.6069 329° Northwest 269 310 8,000  Level Seattle Center
Sat 10:56:06 AM 47.8486 -122.6589 329° Northwest 268 308 8,000  Level Seattle Center
Sat 10:57:07 AM 47.9125 -122.7172 328° Northwest 270 311 8,000  Level Seattle Center
Sat 10:58:08 AM 47.9747 -122.7761 328° Northwest 269 310 8,000  Level Seattle Center
Sat 10:59:09 AM 48.0372 -122.8347 328° Northwest 268 308 8,000  Level Seattle Center
Sat 11:00:10 AM 48.1122 -122.9058 328° Northwest 269 310 8,000 -689 Level Seattle Center
Sat 11:01:11 AM 48.1753 -122.9639 328° Northwest 269 310 6,600 -984 Descending Seattle Center
Sat 11:02:12 AM 48.2381 -123.0239 327° Northwest 270 311 6,000 -295 Descending Seattle Center
Sat 11:03:13 AM 48.3000 -123.0847 339° North 270 311 6,000 -541 Level Seattle Center
Sat 11:04:14 AM 48.3694 -123.1256 339° North 267 307 4,900 -1,279 Descending Seattle Center
Sat 11:05:15 AM 48.4317 -123.1608 339° North 240 276 3,400 -927 Descending Seattle Center
Sat 11:06:17 AM 48.4919 -123.1958 339° North 234 269 3,000 -195 Descending Seattle Center
Sat 11:07:18 AM 48.5572 -123.2336 338° Northwest 218 251 3,000 -344 Level Seattle Center
Sat 11:08:19 AM 48.6119 -123.2678 250° West 216 249 2,300 -842 Descending Seattle Center
Sat 11:09:12 AM 48.6000 -123.3167 297° West 150 173 1,400 -850 Descending Vancouver Center
Sat 11:10:12 AM 48.6167 -123.3667 270° West 120 138 700 -650 Descending Vancouver Center
Sat 11:11:12 AM 48.6167 -123.4000 270° West 110 127 100 -600 Descending Vancouver Center

Login

Don't have an account? Register now (free) for customized features, flight alerts, and more!